sensor_id;sensor_type;location;lat;lon;timestamp;P1;durP1;ratioP1;P2;durP2;ratioP2
43504;SDS011;29098;48.184;16.298;2023-11-18T00:00:19;7.35;;;2.72;;
43504;SDS011;29098;48.184;16.298;2023-11-18T00:02:45;4.90;;;2.58;;
43504;SDS011;29098;48.184;16.298;2023-11-18T00:05:11;5.47;;;2.85;;
43504;SDS011;29098;48.184;16.298;2023-11-18T00:07:39;4.75;;;2.92;;
43504;SDS011;29098;48.184;16.298;2023-11-18T00:10:04;6.28;;;2.92;;
43504;SDS011;29098;48.184;16.298;2023-11-18T00:12:31;4.60;;;2.65;;
43504;SDS011;29098;48.184;16.298;2023-11-18T00:15:00;4.63;;;2.92;;
43504;SDS011;29098;48.184;16.298;2023-11-18T00:17:29;5.82;;;2.78;;
43504;SDS011;29098;48.184;16.298;2023-11-18T00:19:57;4.47;;;2.97;;
43504;SDS011;29098;48.184;16.298;2023-11-18T00:22:22;4.32;;;2.33;;
43504;SDS011;29098;48.184;16.298;2023-11-18T00:24:48;6.13;;;3.63;;
43504;SDS011;29098;48.184;16.298;2023-11-18T00:27:13;3.80;;;2.47;;
43504;SDS011;29098;48.184;16.298;2023-11-18T00:29:40;5.15;;;2.30;;
43504;SDS011;29098;48.184;16.298;2023-11-18T00:32:06;4.00;;;2.38;;
43504;SDS011;29098;48.184;16.298;2023-11-18T00:34:33;4.53;;;2.50;;
43504;SDS011;29098;48.184;16.298;2023-11-18T00:36:59;4.30;;;2.40;;
43504;SDS011;29098;48.184;16.298;2023-11-18T00:39:25;4.22;;;2.45;;
43504;SDS011;29098;48.184;16.298;2023-11-18T00:41:52;4.32;;;2.60;;
43504;SDS011;29098;48.184;16.298;2023-11-18T00:44:18;3.95;;;2.53;;
43504;SDS011;29098;48.184;16.298;2023-11-18T00:46:43;9.07;;;2.97;;
43504;SDS011;29098;48.184;16.298;2023-11-18T00:49:09;4.10;;;2.30;;
43504;SDS011;29098;48.184;16.298;2023-11-18T00:51:37;5.13;;;2.55;;
43504;SDS011;29098;48.184;16.298;2023-11-18T00:54:03;3.85;;;2.30;;
43504;SDS011;29098;48.184;16.298;2023-11-18T00:56:31;4.75;;;2.88;;
43504;SDS011;29098;48.184;16.298;2023-11-18T00:58:57;5.07;;;2.65;;
43504;SDS011;29098;48.184;16.298;2023-11-18T01:01:23;3.88;;;2.30;;
43504;SDS011;29098;48.184;16.298;2023-11-18T01:03:48;4.30;;;2.53;;
43504;SDS011;29098;48.184;16.298;2023-11-18T01:06:14;5.00;;;2.30;;
43504;SDS011;29098;48.184;16.298;2023-11-18T01:08:45;4.38;;;2.40;;
43504;SDS011;29098;48.184;16.298;2023-11-18T01:11:17;3.88;;;2.28;;
43504;SDS011;29098;48.184;16.298;2023-11-18T01:13:44;5.22;;;2.65;;
43504;SDS011;29098;48.184;16.298;2023-11-18T01:16:13;5.30;;;2.42;;
43504;SDS011;29098;48.184;16.298;2023-11-18T01:18:40;4.55;;;2.45;;
43504;SDS011;29098;48.184;16.298;2023-11-18T01:21:06;4.45;;;2.22;;
43504;SDS011;29098;48.184;16.298;2023-11-18T01:23:34;6.05;;;2.85;;
43504;SDS011;29098;48.184;16.298;2023-11-18T01:26:01;7.32;;;3.10;;
43504;SDS011;29098;48.184;16.298;2023-11-18T01:28:30;5.47;;;2.35;;
43504;SDS011;29098;48.184;16.298;2023-11-18T01:31:03;5.60;;;2.35;;
43504;SDS011;29098;48.184;16.298;2023-11-18T01:33:29;5.07;;;2.50;;
43504;SDS011;29098;48.184;16.298;2023-11-18T01:35:55;4.45;;;2.42;;
43504;SDS011;29098;48.184;16.298;2023-11-18T01:38:20;6.80;;;2.72;;
43504;SDS011;29098;48.184;16.298;2023-11-18T01:40:46;4.55;;;2.45;;
43504;SDS011;29098;48.184;16.298;2023-11-18T01:43:12;3.95;;;2.35;;
43504;SDS011;29098;48.184;16.298;2023-11-18T01:45:40;4.35;;;2.00;;
43504;SDS011;29098;48.184;16.298;2023-11-18T01:48:06;7.13;;;2.30;;
43504;SDS011;29098;48.184;16.298;2023-11-18T01:50:34;4.13;;;2.22;;
43504;SDS011;29098;48.184;16.298;2023-11-18T01:53:02;5.25;;;2.70;;
43504;SDS011;29098;48.184;16.298;2023-11-18T01:55:29;5.78;;;2.50;;
43504;SDS011;29098;48.184;16.298;2023-11-18T01:57:54;4.95;;;2.40;;
43504;SDS011;29098;48.184;16.298;2023-11-18T02:00:22;6.72;;;2.50;;
43504;SDS011;29098;48.184;16.298;2023-11-18T02:02:48;3.92;;;2.90;;
43504;SDS011;29098;48.184;16.298;2023-11-18T02:05:14;4.22;;;2.53;;
43504;SDS011;29098;48.184;16.298;2023-11-18T02:07:42;4.00;;;2.10;;
43504;SDS011;29098;48.184;16.298;2023-11-18T02:10:08;4.63;;;2.53;;
43504;SDS011;29098;48.184;16.298;2023-11-18T02:12:46;4.55;;;2.70;;
43504;SDS011;29098;48.184;16.298;2023-11-18T02:15:21;5.65;;;2.55;;
43504;SDS011;29098;48.184;16.298;2023-11-18T02:17:48;5.53;;;2.47;;
43504;SDS011;29098;48.184;16.298;2023-11-18T02:20:15;5.85;;;2.30;;
43504;SDS011;29098;48.184;16.298;2023-11-18T02:22:45;4.65;;;3.40;;
43504;SDS011;29098;48.184;16.298;2023-11-18T02:25:18;3.88;;;2.20;;
43504;SDS011;29098;48.184;16.298;2023-11-18T02:27:44;4.65;;;2.03;;
43504;SDS011;29098;48.184;16.298;2023-11-18T02:30:10;3.95;;;2.30;;
43504;SDS011;29098;48.184;16.298;2023-11-18T02:32:48;6.32;;;2.50;;
43504;SDS011;29098;48.184;16.298;2023-11-18T02:35:31;3.42;;;2.13;;
43504;SDS011;29098;48.184;16.298;2023-11-18T02:38:02;3.83;;;2.05;;
43504;SDS011;29098;48.184;16.298;2023-11-18T02:40:33;3.70;;;2.38;;
43504;SDS011;29098;48.184;16.298;2023-11-18T02:43:03;3.55;;;1.98;;
43504;SDS011;29098;48.184;16.298;2023-11-18T02:45:30;5.60;;;2.25;;
43504;SDS011;29098;48.184;16.298;2023-11-18T02:47:57;5.38;;;2.58;;
43504;SDS011;29098;48.184;16.298;2023-11-18T02:50:24;3.45;;;1.80;;
43504;SDS011;29098;48.184;16.298;2023-11-18T02:52:55;4.20;;;2.30;;
43504;SDS011;29098;48.184;16.298;2023-11-18T02:55:21;3.78;;;2.28;;
43504;SDS011;29098;48.184;16.298;2023-11-18T02:57:47;4.75;;;2.10;;
43504;SDS011;29098;48.184;16.298;2023-11-18T03:00:14;4.15;;;2.17;;
43504;SDS011;29098;48.184;16.298;2023-11-18T03:02:47;2.92;;;1.80;;
43504;SDS011;29098;48.184;16.298;2023-11-18T03:05:13;5.05;;;2.75;;
43504;SDS011;29098;48.184;16.298;2023-11-18T03:07:46;3.90;;;1.77;;
43504;SDS011;29098;48.184;16.298;2023-11-18T03:10:15;3.58;;;1.90;;
43504;SDS011;29098;48.184;16.298;2023-11-18T03:12:50;3.60;;;2.28;;
43504;SDS011;29098;48.184;16.298;2023-11-18T03:15:20;3.67;;;1.98;;
43504;SDS011;29098;48.184;16.298;2023-11-18T03:17:47;3.97;;;1.98;;
43504;SDS011;29098;48.184;16.298;2023-11-18T03:20:18;3.85;;;1.90;;
43504;SDS011;29098;48.184;16.298;2023-11-18T03:22:44;3.58;;;2.22;;
43504;SDS011;29098;48.184;16.298;2023-11-18T03:25:12;3.40;;;1.80;;
43504;SDS011;29098;48.184;16.298;2023-11-18T03:27:39;3.65;;;2.15;;
43504;SDS011;29098;48.184;16.298;2023-11-18T03:30:05;5.13;;;3.03;;
43504;SDS011;29098;48.184;16.298;2023-11-18T03:32:32;4.25;;;2.42;;
43504;SDS011;29098;48.184;16.298;2023-11-18T03:34:58;4.15;;;2.00;;
43504;SDS011;29098;48.184;16.298;2023-11-18T03:37:26;4.15;;;1.70;;
43504;SDS011;29098;48.184;16.298;2023-11-18T03:39:52;3.20;;;2.00;;
43504;SDS011;29098;48.184;16.298;2023-11-18T03:42:18;5.00;;;2.30;;
43504;SDS011;29098;48.184;16.298;2023-11-18T03:44:43;3.22;;;2.35;;
43504;SDS011;29098;48.184;16.298;2023-11-18T03:47:12;4.47;;;2.08;;
43504;SDS011;29098;48.184;16.298;2023-11-18T03:49:41;2.78;;;1.58;;
43504;SDS011;29098;48.184;16.298;2023-11-18T03:52:07;3.05;;;1.63;;
43504;SDS011;29098;48.184;16.298;2023-11-18T03:54:33;4.45;;;2.10;;
43504;SDS011;29098;48.184;16.298;2023-11-18T03:56:58;6.03;;;2.42;;
43504;SDS011;29098;48.184;16.298;2023-11-18T03:59:24;5.15;;;2.38;;
43504;SDS011;29098;48.184;16.298;2023-11-18T04:01:50;3.30;;;2.08;;
43504;SDS011;29098;48.184;16.298;2023-11-18T04:04:16;4.78;;;2.60;;
43504;SDS011;29098;48.184;16.298;2023-11-18T04:06:43;4.47;;;2.50;;
43504;SDS011;29098;48.184;16.298;2023-11-18T04:09:09;4.57;;;2.45;;
43504;SDS011;29098;48.184;16.298;2023-11-18T04:11:35;5.03;;;2.92;;
43504;SDS011;29098;48.184;16.298;2023-11-18T04:14:01;5.45;;;2.45;;
43504;SDS011;29098;48.184;16.298;2023-11-18T04:16:28;5.95;;;2.78;;
43504;SDS011;29098;48.184;16.298;2023-11-18T04:18:54;5.00;;;2.80;;
43504;SDS011;29098;48.184;16.298;2023-11-18T04:21:20;6.15;;;3.90;;
43504;SDS011;29098;48.184;16.298;2023-11-18T04:23:46;6.28;;;2.45;;
43504;SDS011;29098;48.184;16.298;2023-11-18T04:26:12;5.60;;;3.03;;
43504;SDS011;29098;48.184;16.298;2023-11-18T04:28:38;4.78;;;3.10;;
43504;SDS011;29098;48.184;16.298;2023-11-18T04:31:03;6.82;;;3.13;;
43504;SDS011;29098;48.184;16.298;2023-11-18T04:33:32;7.40;;;3.67;;
43504;SDS011;29098;48.184;16.298;2023-11-18T04:35:58;5.72;;;3.03;;
43504;SDS011;29098;48.184;16.298;2023-11-18T04:38:24;5.85;;;3.78;;
43504;SDS011;29098;48.184;16.298;2023-11-18T04:40:54;5.00;;;2.97;;
43504;SDS011;29098;48.184;16.298;2023-11-18T04:43:20;6.88;;;3.70;;
43504;SDS011;29098;48.184;16.298;2023-11-18T04:45:47;5.47;;;3.60;;
43504;SDS011;29098;48.184;16.298;2023-11-18T04:48:12;6.85;;;3.33;;
43504;SDS011;29098;48.184;16.298;2023-11-18T04:50:41;6.25;;;3.33;;
43504;SDS011;29098;48.184;16.298;2023-11-18T04:53:07;4.85;;;2.72;;
43504;SDS011;29098;48.184;16.298;2023-11-18T04:55:35;7.93;;;4.03;;
43504;SDS011;29098;48.184;16.298;2023-11-18T04:58:01;6.88;;;3.55;;
43504;SDS011;29098;48.184;16.298;2023-11-18T05:00:27;5.70;;;3.38;;
43504;SDS011;29098;48.184;16.298;2023-11-18T05:02:53;6.35;;;3.05;;
43504;SDS011;29098;48.184;16.298;2023-11-18T05:05:19;5.55;;;2.92;;
43504;SDS011;29098;48.184;16.298;2023-11-18T05:07:45;5.32;;;3.03;;
43504;SDS011;29098;48.184;16.298;2023-11-18T05:10:10;5.30;;;3.15;;
43504;SDS011;29098;48.184;16.298;2023-11-18T05:12:39;4.00;;;2.50;;
43504;SDS011;29098;48.184;16.298;2023-11-18T05:15:05;4.30;;;2.67;;
43504;SDS011;29098;48.184;16.298;2023-11-18T05:17:38;6.28;;;3.25;;
43504;SDS011;29098;48.184;16.298;2023-11-18T05:20:04;4.90;;;2.40;;
43504;SDS011;29098;48.184;16.298;2023-11-18T05:22:34;6.47;;;2.90;;
43504;SDS011;29098;48.184;16.298;2023-11-18T05:25:01;4.75;;;2.60;;
43504;SDS011;29098;48.184;16.298;2023-11-18T05:27:29;6.90;;;3.33;;
43504;SDS011;29098;48.184;16.298;2023-11-18T05:29:56;4.97;;;2.47;;
43504;SDS011;29098;48.184;16.298;2023-11-18T05:32:26;5.55;;;2.90;;
43504;SDS011;29098;48.184;16.298;2023-11-18T05:34:52;5.70;;;2.88;;
43504;SDS011;29098;48.184;16.298;2023-11-18T05:37:20;6.43;;;3.17;;
43504;SDS011;29098;48.184;16.298;2023-11-18T05:39:46;6.63;;;3.72;;
43504;SDS011;29098;48.184;16.298;2023-11-18T05:42:14;6.78;;;3.58;;
43504;SDS011;29098;48.184;16.298;2023-11-18T05:44:40;4.40;;;2.58;;
43504;SDS011;29098;48.184;16.298;2023-11-18T05:47:08;6.82;;;2.67;;
43504;SDS011;29098;48.184;16.298;2023-11-18T05:49:36;5.28;;;2.95;;
43504;SDS011;29098;48.184;16.298;2023-11-18T05:52:03;9.85;;;3.45;;
43504;SDS011;29098;48.184;16.298;2023-11-18T05:54:30;7.78;;;3.50;;
43504;SDS011;29098;48.184;16.298;2023-11-18T05:56:55;5.50;;;3.20;;
43504;SDS011;29098;48.184;16.298;2023-11-18T05:59:21;5.43;;;3.60;;
43504;SDS011;29098;48.184;16.298;2023-11-18T06:01:48;8.18;;;2.85;;
43504;SDS011;29098;48.184;16.298;2023-11-18T06:04:14;6.90;;;3.05;;
43504;SDS011;29098;48.184;16.298;2023-11-18T06:06:40;5.20;;;2.92;;
43504;SDS011;29098;48.184;16.298;2023-11-18T06:09:06;5.60;;;2.78;;
43504;SDS011;29098;48.184;16.298;2023-11-18T06:11:40;5.28;;;2.88;;
43504;SDS011;29098;48.184;16.298;2023-11-18T06:14:06;4.32;;;2.70;;
43504;SDS011;29098;48.184;16.298;2023-11-18T06:16:33;6.07;;;3.08;;
43504;SDS011;29098;48.184;16.298;2023-11-18T06:19:00;5.28;;;2.90;;
43504;SDS011;29098;48.184;16.298;2023-11-18T06:21:30;8.02;;;3.47;;
43504;SDS011;29098;48.184;16.298;2023-11-18T06:23:56;6.65;;;3.10;;
43504;SDS011;29098;48.184;16.298;2023-11-18T06:26:23;6.50;;;4.10;;
43504;SDS011;29098;48.184;16.298;2023-11-18T06:28:52;6.15;;;3.45;;
43504;SDS011;29098;48.184;16.298;2023-11-18T06:31:19;5.60;;;3.15;;
43504;SDS011;29098;48.184;16.298;2023-11-18T06:33:45;4.78;;;2.95;;
43504;SDS011;29098;48.184;16.298;2023-11-18T06:38:51;6.85;;;2.97;;
43504;SDS011;29098;48.184;16.298;2023-11-18T06:41:19;5.10;;;3.05;;
43504;SDS011;29098;48.184;16.298;2023-11-18T06:43:48;6.28;;;3.30;;
43504;SDS011;29098;48.184;16.298;2023-11-18T06:46:20;5.18;;;3.55;;
43504;SDS011;29098;48.184;16.298;2023-11-18T06:48:53;7.13;;;4.03;;
43504;SDS011;29098;48.184;16.298;2023-11-18T06:51:23;6.53;;;3.92;;
43504;SDS011;29098;48.184;16.298;2023-11-18T06:53:50;6.72;;;3.53;;
43504;SDS011;29098;48.184;16.298;2023-11-18T06:56:16;5.82;;;3.75;;
43504;SDS011;29098;48.184;16.298;2023-11-18T06:58:42;5.65;;;3.30;;
43504;SDS011;29098;48.184;16.298;2023-11-18T07:01:08;6.03;;;3.50;;
43504;SDS011;29098;48.184;16.298;2023-11-18T07:03:38;6.55;;;3.35;;
43504;SDS011;29098;48.184;16.298;2023-11-18T07:06:06;5.07;;;3.03;;
43504;SDS011;29098;48.184;16.298;2023-11-18T07:08:32;6.85;;;3.05;;
43504;SDS011;29098;48.184;16.298;2023-11-18T07:11:00;4.78;;;3.00;;
43504;SDS011;29098;48.184;16.298;2023-11-18T07:13:26;9.45;;;3.92;;
43504;SDS011;29098;48.184;16.298;2023-11-18T07:15:52;5.78;;;3.15;;
43504;SDS011;29098;48.184;16.298;2023-11-18T07:18:21;5.20;;;3.05;;
43504;SDS011;29098;48.184;16.298;2023-11-18T07:20:50;4.90;;;2.70;;
43504;SDS011;29098;48.184;16.298;2023-11-18T07:23:19;5.72;;;2.85;;
43504;SDS011;29098;48.184;16.298;2023-11-18T07:25:45;7.18;;;3.15;;
43504;SDS011;29098;48.184;16.298;2023-11-18T07:28:11;5.93;;;3.55;;
43504;SDS011;29098;48.184;16.298;2023-11-18T07:30:40;6.13;;;3.50;;
43504;SDS011;29098;48.184;16.298;2023-11-18T07:33:08;6.55;;;3.45;;
43504;SDS011;29098;48.184;16.298;2023-11-18T07:35:34;7.65;;;3.28;;
43504;SDS011;29098;48.184;16.298;2023-11-18T07:38:02;4.97;;;2.83;;
43504;SDS011;29098;48.184;16.298;2023-11-18T07:40:28;5.60;;;2.90;;
43504;SDS011;29098;48.184;16.298;2023-11-18T07:42:54;4.63;;;3.08;;
43504;SDS011;29098;48.184;16.298;2023-11-18T07:45:21;5.82;;;3.70;;
43504;SDS011;29098;48.184;16.298;2023-11-18T07:47:48;5.88;;;3.70;;
43504;SDS011;29098;48.184;16.298;2023-11-18T07:50:16;5.90;;;3.13;;
43504;SDS011;29098;48.184;16.298;2023-11-18T07:52:44;5.45;;;3.28;;
43504;SDS011;29098;48.184;16.298;2023-11-18T07:55:11;5.13;;;3.17;;
43504;SDS011;29098;48.184;16.298;2023-11-18T07:57:37;5.63;;;2.83;;
43504;SDS011;29098;48.184;16.298;2023-11-18T08:00:03;5.63;;;3.65;;
43504;SDS011;29098;48.184;16.298;2023-11-18T08:02:34;7.35;;;3.83;;
43504;SDS011;29098;48.184;16.298;2023-11-18T08:05:04;6.50;;;2.97;;
43504;SDS011;29098;48.184;16.298;2023-11-18T08:07:33;5.93;;;3.08;;
43504;SDS011;29098;48.184;16.298;2023-11-18T08:10:00;5.82;;;3.35;;
43504;SDS011;29098;48.184;16.298;2023-11-18T08:12:29;5.82;;;3.53;;
43504;SDS011;29098;48.184;16.298;2023-11-18T08:14:55;6.55;;;3.78;;
43504;SDS011;29098;48.184;16.298;2023-11-18T08:17:34;5.95;;;3.65;;
43504;SDS011;29098;48.184;16.298;2023-11-18T08:20:01;7.28;;;3.40;;
43504;SDS011;29098;48.184;16.298;2023-11-18T08:22:39;7.07;;;4.20;;
43504;SDS011;29098;48.184;16.298;2023-11-18T08:25:09;6.05;;;3.45;;
43504;SDS011;29098;48.184;16.298;2023-11-18T08:27:35;5.97;;;3.25;;
43504;SDS011;29098;48.184;16.298;2023-11-18T08:30:01;5.72;;;3.47;;
43504;SDS011;29098;48.184;16.298;2023-11-18T08:32:31;5.88;;;3.78;;
43504;SDS011;29098;48.184;16.298;2023-11-18T08:34:56;6.03;;;3.72;;
43504;SDS011;29098;48.184;16.298;2023-11-18T08:37:22;7.93;;;3.80;;
43504;SDS011;29098;48.184;16.298;2023-11-18T08:39:48;6.45;;;4.05;;
43504;SDS011;29098;48.184;16.298;2023-11-18T08:42:13;7.40;;;4.47;;
43504;SDS011;29098;48.184;16.298;2023-11-18T08:44:40;8.45;;;3.63;;
43504;SDS011;29098;48.184;16.298;2023-11-18T08:47:14;5.75;;;3.90;;
43504;SDS011;29098;48.184;16.298;2023-11-18T08:49:42;6.53;;;3.97;;
43504;SDS011;29098;48.184;16.298;2023-11-18T08:52:11;7.03;;;3.90;;
43504;SDS011;29098;48.184;16.298;2023-11-18T08:54:38;7.25;;;3.70;;
43504;SDS011;29098;48.184;16.298;2023-11-18T08:57:24;6.75;;;3.42;;
43504;SDS011;29098;48.184;16.298;2023-11-18T08:59:50;6.90;;;3.47;;
43504;SDS011;29098;48.184;16.298;2023-11-18T09:02:19;6.13;;;4.55;;
43504;SDS011;29098;48.184;16.298;2023-11-18T09:04:52;7.20;;;3.28;;
43504;SDS011;29098;48.184;16.298;2023-11-18T09:07:23;7.68;;;3.95;;
43504;SDS011;29098;48.184;16.298;2023-11-18T09:09:51;5.63;;;3.45;;
43504;SDS011;29098;48.184;16.298;2023-11-18T09:12:18;8.00;;;4.20;;
43504;SDS011;29098;48.184;16.298;2023-11-18T09:14:44;6.90;;;4.28;;
43504;SDS011;29098;48.184;16.298;2023-11-18T09:17:12;5.20;;;3.58;;
43504;SDS011;29098;48.184;16.298;2023-11-18T09:19:39;8.10;;;4.05;;
43504;SDS011;29098;48.184;16.298;2023-11-18T09:22:05;6.10;;;3.90;;
43504;SDS011;29098;48.184;16.298;2023-11-18T09:24:32;7.05;;;3.33;;
43504;SDS011;29098;48.184;16.298;2023-11-18T09:26:58;9.18;;;4.00;;
43504;SDS011;29098;48.184;16.298;2023-11-18T09:29:24;7.15;;;3.67;;
43504;SDS011;29098;48.184;16.298;2023-11-18T09:31:50;8.02;;;3.38;;
43504;SDS011;29098;48.184;16.298;2023-11-18T09:34:21;5.53;;;3.40;;
43504;SDS011;29098;48.184;16.298;2023-11-18T09:36:58;7.20;;;3.95;;
43504;SDS011;29098;48.184;16.298;2023-11-18T09:39:23;6.68;;;3.78;;
43504;SDS011;29098;48.184;16.298;2023-11-18T09:42:02;7.47;;;3.58;;
43504;SDS011;29098;48.184;16.298;2023-11-18T09:44:29;7.65;;;4.88;;
43504;SDS011;29098;48.184;16.298;2023-11-18T09:46:56;5.55;;;3.72;;
43504;SDS011;29098;48.184;16.298;2023-11-18T09:49:31;6.78;;;3.60;;
43504;SDS011;29098;48.184;16.298;2023-11-18T09:52:04;5.60;;;3.60;;
43504;SDS011;29098;48.184;16.298;2023-11-18T10:00:06;7.60;;;4.25;;
43504;SDS011;29098;48.184;16.298;2023-11-18T10:02:45;5.45;;;3.60;;
43504;SDS011;29098;48.184;16.298;2023-11-18T10:05:11;7.80;;;4.30;;
43504;SDS011;29098;48.184;16.298;2023-11-18T10:07:41;9.73;;;4.43;;
43504;SDS011;29098;48.184;16.298;2023-11-18T10:10:10;6.10;;;3.88;;
43504;SDS011;29098;48.184;16.298;2023-11-18T10:12:45;8.02;;;3.80;;
43504;SDS011;29098;48.184;16.298;2023-11-18T10:17:43;8.00;;;4.28;;
43504;SDS011;29098;48.184;16.298;2023-11-18T10:20:44;7.47;;;4.72;;
43504;SDS011;29098;48.184;16.298;2023-11-18T10:23:12;7.32;;;4.35;;
43504;SDS011;29098;48.184;16.298;2023-11-18T10:25:54;7.03;;;3.85;;
43504;SDS011;29098;48.184;16.298;2023-11-18T10:28:27;7.22;;;4.38;;
43504;SDS011;29098;48.184;16.298;2023-11-18T10:31:00;9.85;;;4.38;;
43504;SDS011;29098;48.184;16.298;2023-11-18T10:33:44;7.85;;;4.40;;
43504;SDS011;29098;48.184;16.298;2023-11-18T10:36:20;6.43;;;3.97;;
43504;SDS011;29098;48.184;16.298;2023-11-18T10:38:50;6.28;;;4.10;;
43504;SDS011;29098;48.184;16.298;2023-11-18T10:41:20;7.15;;;4.00;;
43504;SDS011;29098;48.184;16.298;2023-11-18T10:43:46;7.07;;;4.38;;
43504;SDS011;29098;48.184;16.298;2023-11-18T10:46:15;7.95;;;4.05;;
43504;SDS011;29098;48.184;16.298;2023-11-18T10:48:42;5.57;;;3.92;;
43504;SDS011;29098;48.184;16.298;2023-11-18T10:51:16;5.88;;;4.10;;
43504;SDS011;29098;48.184;16.298;2023-11-18T10:53:46;8.25;;;4.20;;
43504;SDS011;29098;48.184;16.298;2023-11-18T10:56:29;7.70;;;4.32;;
43504;SDS011;29098;48.184;16.298;2023-11-18T10:58:58;6.15;;;3.85;;
43504;SDS011;29098;48.184;16.298;2023-11-18T11:01:38;7.38;;;3.72;;
43504;SDS011;29098;48.184;16.298;2023-11-18T11:04:07;9.30;;;4.57;;
43504;SDS011;29098;48.184;16.298;2023-11-18T11:06:44;5.70;;;3.80;;
43504;SDS011;29098;48.184;16.298;2023-11-18T11:09:25;7.57;;;4.60;;
43504;SDS011;29098;48.184;16.298;2023-11-18T11:11:54;6.78;;;4.32;;
43504;SDS011;29098;48.184;16.298;2023-11-18T11:14:30;5.38;;;3.80;;
43504;SDS011;29098;48.184;16.298;2023-11-18T11:17:06;7.32;;;4.78;;
43504;SDS011;29098;48.184;16.298;2023-11-18T11:22:42;7.35;;;4.03;;
43504;SDS011;29098;48.184;16.298;2023-11-18T11:25:22;6.10;;;4.00;;
43504;SDS011;29098;48.184;16.298;2023-11-18T11:28:11;7.93;;;4.50;;
43504;SDS011;29098;48.184;16.298;2023-11-18T11:30:45;7.68;;;4.35;;
43504;SDS011;29098;48.184;16.298;2023-11-18T11:36:09;7.00;;;4.65;;
43504;SDS011;29098;48.184;16.298;2023-11-18T11:38:37;8.80;;;4.15;;
43504;SDS011;29098;48.184;16.298;2023-11-18T11:41:04;7.68;;;4.00;;
43504;SDS011;29098;48.184;16.298;2023-11-18T11:43:33;7.63;;;4.38;;
43504;SDS011;29098;48.184;16.298;2023-11-18T11:46:00;6.93;;;3.88;;
43504;SDS011;29098;48.184;16.298;2023-11-18T11:48:35;5.63;;;3.70;;
43504;SDS011;29098;48.184;16.298;2023-11-18T11:52:04;4.82;;;3.42;;
43504;SDS011;29098;48.184;16.298;2023-11-18T11:54:19;7.25;;;4.10;;
43504;SDS011;29098;48.184;16.298;2023-11-18T11:56:50;6.75;;;4.05;;
43504;SDS011;29098;48.184;16.298;2023-11-18T12:02:19;6.75;;;3.92;;
43504;SDS011;29098;48.184;16.298;2023-11-18T12:04:52;7.35;;;4.22;;
43504;SDS011;29098;48.184;16.298;2023-11-18T12:07:21;9.73;;;3.78;;
43504;SDS011;29098;48.184;16.298;2023-11-18T12:09:57;9.20;;;4.35;;
43504;SDS011;29098;48.184;16.298;2023-11-18T12:12:24;5.95;;;3.90;;
43504;SDS011;29098;48.184;16.298;2023-11-18T12:14:52;5.32;;;3.47;;
43504;SDS011;29098;48.184;16.298;2023-11-18T12:23:16;9.00;;;4.30;;
43504;SDS011;29098;48.184;16.298;2023-11-18T12:25:46;7.28;;;4.75;;
43504;SDS011;29098;48.184;16.298;2023-11-18T12:28:15;7.07;;;4.28;;
43504;SDS011;29098;48.184;16.298;2023-11-18T12:30:42;6.47;;;4.63;;
43504;SDS011;29098;48.184;16.298;2023-11-18T12:33:20;6.55;;;4.60;;
43504;SDS011;29098;48.184;16.298;2023-11-18T12:35:57;7.00;;;4.00;;
43504;SDS011;29098;48.184;16.298;2023-11-18T12:46:50;8.38;;;4.15;;
43504;SDS011;29098;48.184;16.298;2023-11-18T12:49:21;7.50;;;4.43;;
43504;SDS011;29098;48.184;16.298;2023-11-18T12:51:51;8.25;;;3.97;;
43504;SDS011;29098;48.184;16.298;2023-11-18T12:54:22;6.13;;;4.40;;
43504;SDS011;29098;48.184;16.298;2023-11-18T12:56:55;6.63;;;4.00;;
43504;SDS011;29098;48.184;16.298;2023-11-18T12:59:21;6.05;;;4.22;;
43504;SDS011;29098;48.184;16.298;2023-11-18T13:01:48;9.65;;;4.93;;
43504;SDS011;29098;48.184;16.298;2023-11-18T13:04:21;6.43;;;3.78;;
43504;SDS011;29098;48.184;16.298;2023-11-18T13:06:52;7.57;;;4.55;;
43504;SDS011;29098;48.184;16.298;2023-11-18T13:09:19;7.85;;;4.10;;
43504;SDS011;29098;48.184;16.298;2023-11-18T13:12:01;6.43;;;3.67;;
43504;SDS011;29098;48.184;16.298;2023-11-18T13:14:34;4.78;;;3.40;;
43504;SDS011;29098;48.184;16.298;2023-11-18T13:17:04;5.00;;;3.47;;
43504;SDS011;29098;48.184;16.298;2023-11-18T13:19:33;5.63;;;3.45;;
43504;SDS011;29098;48.184;16.298;2023-11-18T13:22:00;6.10;;;3.38;;
43504;SDS011;29098;48.184;16.298;2023-11-18T13:24:33;7.10;;;3.53;;
43504;SDS011;29098;48.184;16.298;2023-11-18T13:27:04;5.20;;;3.30;;
43504;SDS011;29098;48.184;16.298;2023-11-18T13:29:32;5.00;;;3.25;;
43504;SDS011;29098;48.184;16.298;2023-11-18T13:31:59;6.38;;;3.58;;
43504;SDS011;29098;48.184;16.298;2023-11-18T13:34:29;5.40;;;3.42;;
43504;SDS011;29098;48.184;16.298;2023-11-18T13:36:58;5.43;;;2.85;;
43504;SDS011;29098;48.184;16.298;2023-11-18T13:39:25;5.70;;;3.35;;
43504;SDS011;29098;48.184;16.298;2023-11-18T13:41:53;7.68;;;2.83;;
43504;SDS011;29098;48.184;16.298;2023-11-18T13:44:32;5.13;;;3.17;;
43504;SDS011;29098;48.184;16.298;2023-11-18T13:47:04;4.63;;;2.72;;
43504;SDS011;29098;48.184;16.298;2023-11-18T13:49:33;5.50;;;2.97;;
43504;SDS011;29098;48.184;16.298;2023-11-18T13:52:00;6.05;;;3.80;;
43504;SDS011;29098;48.184;16.298;2023-11-18T13:54:29;4.90;;;3.33;;
43504;SDS011;29098;48.184;16.298;2023-11-18T13:56:56;5.70;;;3.10;;
43504;SDS011;29098;48.184;16.298;2023-11-18T13:59:26;5.63;;;3.58;;
43504;SDS011;29098;48.184;16.298;2023-11-18T14:01:56;5.32;;;3.35;;
43504;SDS011;29098;48.184;16.298;2023-11-18T14:04:26;5.05;;;3.35;;
43504;SDS011;29098;48.184;16.298;2023-11-18T14:06:53;5.20;;;3.50;;
43504;SDS011;29098;48.184;16.298;2023-11-18T14:09:22;4.82;;;2.83;;
43504;SDS011;29098;48.184;16.298;2023-11-18T14:11:50;8.32;;;4.57;;
43504;SDS011;29098;48.184;16.298;2023-11-18T14:14:16;6.35;;;4.05;;
43504;SDS011;29098;48.184;16.298;2023-11-18T14:16:43;5.57;;;4.25;;
43504;SDS011;29098;48.184;16.298;2023-11-18T14:19:09;4.18;;;2.85;;
43504;SDS011;29098;48.184;16.298;2023-11-18T14:21:36;5.10;;;3.05;;
43504;SDS011;29098;48.184;16.298;2023-11-18T14:24:01;5.00;;;3.30;;
43504;SDS011;29098;48.184;16.298;2023-11-18T14:26:28;4.45;;;2.88;;
43504;SDS011;29098;48.184;16.298;2023-11-18T14:28:55;5.30;;;3.30;;
43504;SDS011;29098;48.184;16.298;2023-11-18T14:31:21;6.82;;;3.25;;
43504;SDS011;29098;48.184;16.298;2023-11-18T14:33:50;4.97;;;2.90;;
43504;SDS011;29098;48.184;16.298;2023-11-18T14:36:16;5.07;;;2.90;;
43504;SDS011;29098;48.184;16.298;2023-11-18T14:38:44;6.03;;;3.50;;
43504;SDS011;29098;48.184;16.298;2023-11-18T14:41:11;5.55;;;3.17;;
43504;SDS011;29098;48.184;16.298;2023-11-18T14:43:37;5.47;;;2.70;;
43504;SDS011;29098;48.184;16.298;2023-11-18T14:46:03;5.07;;;2.97;;
43504;SDS011;29098;48.184;16.298;2023-11-18T14:48:29;5.68;;;2.53;;
43504;SDS011;29098;48.184;16.298;2023-11-18T14:50:55;4.85;;;2.75;;
43504;SDS011;29098;48.184;16.298;2023-11-18T14:53:22;4.55;;;2.65;;
43504;SDS011;29098;48.184;16.298;2023-11-18T14:55:48;5.15;;;2.90;;
43504;SDS011;29098;48.184;16.298;2023-11-18T14:58:14;4.55;;;2.58;;
43504;SDS011;29098;48.184;16.298;2023-11-18T15:00:39;4.68;;;3.13;;
43504;SDS011;29098;48.184;16.298;2023-11-18T15:03:05;4.90;;;3.22;;
43504;SDS011;29098;48.184;16.298;2023-11-18T15:05:31;4.40;;;2.47;;
43504;SDS011;29098;48.184;16.298;2023-11-18T15:07:56;4.45;;;2.33;;
43504;SDS011;29098;48.184;16.298;2023-11-18T15:10:24;4.57;;;2.97;;
43504;SDS011;29098;48.184;16.298;2023-11-18T15:12:52;6.00;;;2.67;;
43504;SDS011;29098;48.184;16.298;2023-11-18T15:15:22;4.40;;;2.75;;